Stations météo

réclame
Mon MeteoGroup
Dravagen, Suède (2317): Température de l'air & dewpoint: 16.10.2017 02:00:00 - 22.10.2017 02:00:00 (CEST)Dravagen, Suède (2317): Vitesse du vent & gusts: 16.10.2017 02:00:00 - 22.10.2017 02:00:00 (CEST)Dravagen, Suède (2317): Direction du vent: 16.10.2017 02:00:00 - 22.10.2017 02:00:00 (CEST)Dravagen, Suède (2317): visibility: 16.10.2017 02:00:00 - 22.10.2017 02:00:00 (CEST)Dravagen, Suède (2317): Quantités de précipitations: 16.10.2017 02:00:00 - 22.10.2017 02:00:00 (CEST)
Date & Time tt [°C] td [°C] ff [km/h] ff [knt] fx [km/h] fx [knt] dd vv [km] rr [mm]
22.10.2017 02:00:00 0,4 -1,7 0 0 4 2 N 50 0,0
22.10.2017 01:00:00 0,1 -2,0 0 0 6 4 N 50 0,0
22.10.2017 00:00:00 -0,3 -1,9 3 2 5 3 WNW 50 0,0
21.10.2017 23:00:00 0,4 -2,3 0 0 5 3 N 50 0,0
21.10.2017 22:00:00 0,5 -2,9 0 0 10 6 N 50 0,0
21.10.2017 21:00:00 0,8 -2,9 4 2 16 9 S 50 0,0
21.10.2017 20:00:00 1,0 -2,9 6 3 16 8 SSW 50 0,0
21.10.2017 19:00:00 1,1 -2,8 5 3 12 6 SW 50 0,0
21.10.2017 18:00:00 1,3 -2,5 6 3 16 9 S 50 0,0
21.10.2017 17:00:00 1,7 -1,6 4 2 16 8 SSW 50 0,0
21.10.2017 16:00:00 2,1 -1,5 8 4 17 9 SW 50 0,0
21.10.2017 15:00:00 2,6 -1,4 6 3 18 10 S 50 0,0
21.10.2017 14:00:00 2,6 -1,4 9 5 18 10 SSW 50 0,0
21.10.2017 13:00:00 2,6 -1,2 7 4 16 9 SW 50 0,0
21.10.2017 12:00:00 2,4 -0,9 8 4 16 8 SSE 50 0,0
21.10.2017 11:00:00 1,8 -1,5 7 4 15 8 SSE 50 0,0
21.10.2017 10:00:00 1,4 -1,2 6 4 12 6 ESE 50 0,0
21.10.2017 09:00:00 1,1 -1,5 4 2 11 6 SE 50 0,0
21.10.2017 08:00:00 0,7 -1,5 5 3 13 7 E 50 0,0
21.10.2017 07:00:00 0,8 -1,4 4 2 13 7 SE 50 0,0
21.10.2017 06:00:00 0,9 -1,2 5 3 10 5 SE 50 0,0
21.10.2017 05:00:00 0,4 -0,5 5 3 10 5 E 50 0,0
21.10.2017 04:00:00 0,5 -0,4 5 3 11 6 E 50 0,0
21.10.2017 03:00:00 0,8 -0,2 6 3 14 8 E 50 0,0
21.10.2017 02:00:00 0,8 -0,2 8 4 11 6 E 50 0,0
21.10.2017 01:00:00 1,1 0,2 7 4 13 7 E 50 0,0
21.10.2017 00:00:00 1,3 0,3 6 3 12 7 E 50 0,0
20.10.2017 23:00:00 1,4 0,7 6 3 12 7 E 50 0,0
20.10.2017 22:00:00 1,2 0,8 6 4 12 6 E 50 0,0
20.10.2017 21:00:00 1,3 0,9 9 5 13 7 E 50 0,0
20.10.2017 20:00:00 1,4 0,8 5 3 11 6 E 50 -
20.10.2017 19:00:00 1,5 0,8 8 4 11 6 E 50 -
20.10.2017 18:00:00 1,6 0,9 7 4 12 6 E 50 -
20.10.2017 17:00:00 1,8 0,9 9 5 14 8 E 50 -
20.10.2017 16:00:00 2,1 0,9 11 6 16 9 E 50 -
20.10.2017 15:00:00 2,2 1,0 7 4 10 6 E 46 -
20.10.2017 14:00:00 2,3 1,4 - - - - - 50 -
20.10.2017 13:00:00 2,0 1,3 3 2 8 5 SE 50 0,0
20.10.2017 12:00:00 1,2 0,8 2 1 4 2 S 50 0,0
20.10.2017 11:00:00 -0,2 -0,5 0 0 3 2 N 50 0,0
20.10.2017 10:00:00 -1,4 -1,7 0 0 2 1 N 50 0,0
20.10.2017 09:00:00 -2,4 -2,7 0 0 3 2 N 50 0,0
20.10.2017 08:00:00 -3,0 -3,3 2 1 4 2 W 50 0,0
20.10.2017 07:00:00 -4,1 -4,6 0 0 5 3 N 50 0,0
20.10.2017 06:00:00 -5,0 -5,4 3 2 4 2 W 50 0,0
20.10.2017 05:00:00 -5,8 -6,2 4 2 9 5 W 50 0,0
20.10.2017 04:00:00 -6,6 -7,1 5 3 8 4 W 50 0,0
20.10.2017 03:00:00 -6,2 -6,7 4 2 6 4 WNW 50 0,0
20.10.2017 02:00:00 -6,0 -6,5 2 1 6 4 W 50 0,0
20.10.2017 01:00:00 -5,4 -5,9 5 3 8 4 W 50 0,0
20.10.2017 00:00:00 -4,9 -5,3 4 2 8 4 W 50 0,0
19.10.2017 23:00:00 -4,8 -5,2 4 2 7 4 W 50 0,0
19.10.2017 22:00:00 -3,9 -4,3 4 2 6 4 W 50 0,0
19.10.2017 21:00:00 -4,2 -4,7 5 3 8 5 W 50 0,0
19.10.2017 20:00:00 -3,4 -3,8 6 4 9 5 W 50 0,0
19.10.2017 19:00:00 -3,1 -3,8 6 4 8 4 W 50 0,0
19.10.2017 18:00:00 -1,7 -2,7 5 3 7 4 W 50 0,0
19.10.2017 17:00:00 4,5 -0,9 3 2 10 5 SSW 50 0,0
19.10.2017 16:00:00 5,9 -0,8 7 4 14 8 SSW 50 0,0
19.10.2017 15:00:00 6,6 -0,6 5 3 17 9 S 50 0,0
19.10.2017 14:00:00 6,3 0,2 4 2 12 6 SSE 50 0,0
19.10.2017 13:00:00 5,7 -0,2 4 2 11 6 SE 48 0,0
19.10.2017 12:00:00 5,5 0,1 0 0 7 4 N 50 0,0
19.10.2017 11:00:00 4,4 0,0 0 0 5 3 N 50 0,0
19.10.2017 10:00:00 1,8 0,0 0 0 4 2 N 45 0,0
19.10.2017 09:00:00 -1,3 -1,7 4 2 10 5 SW 50 0,0
19.10.2017 08:00:00 -2,9 -3,4 2 1 10 5 WSW 50 0,0
19.10.2017 07:00:00 -1,9 -2,6 6 3 14 7 W 50 0,0
19.10.2017 06:00:00 -0,6 -1,6 3 2 14 8 SSW 50 0,0
19.10.2017 05:00:00 0,2 -1,2 5 3 24 13 W 50 0,0
19.10.2017 04:00:00 0,4 -0,9 17 9 23 13 NW 50 0,0
19.10.2017 03:00:00 2,0 -0,4 18 10 40 21 NW 50 0,0
19.10.2017 02:00:00 3,2 -0,3 9 5 20 11 NW 50 0,0
19.10.2017 01:00:00 2,3 -0,5 11 6 20 11 SSW 50 0,0
19.10.2017 00:00:00 1,7 -0,4 7 4 17 9 S 50 0,0
18.10.2017 23:00:00 1,4 -0,8 4 2 29 16 NNE 50 0,0
18.10.2017 22:00:00 2,6 0,0 16 9 37 20 WNW 50 0,0
18.10.2017 21:00:00 3,3 0,0 23 12 48 26 WNW 50 0,0
18.10.2017 20:00:00 3,0 0,1 17 9 31 17 WNW 50 0,0
18.10.2017 19:00:00 3,3 0,4 17 9 29 16 WNW 50 0,0
18.10.2017 18:00:00 4,0 0,5 15 8 29 16 WNW 49 0,0
18.10.2017 17:00:00 4,6 0,6 16 8 37 20 WNW 50 0,0
18.10.2017 16:00:00 6,0 0,9 22 12 45 24 WNW 50 0,0
18.10.2017 15:00:00 6,0 0,3 23 12 42 23 WNW 50 0,0
18.10.2017 14:00:00 6,1 1,2 20 11 45 24 WNW 50 0,0
18.10.2017 13:00:00 6,2 1,7 24 13 46 25 WNW 48 0,0
18.10.2017 12:00:00 5,5 1,4 27 15 48 26 WNW 50 0,0
18.10.2017 11:00:00 5,0 1,7 22 12 43 23 WNW 49 0,0
18.10.2017 10:00:00 3,8 1,2 16 8 29 16 WNW 50 0,0
18.10.2017 09:00:00 2,8 0,7 14 8 31 17 WNW 50 0,0
18.10.2017 08:00:00 1,9 0,3 17 9 28 15 WNW 50 0,0
18.10.2017 07:00:00 1,7 0,1 20 11 32 18 WNW 50 0,0
18.10.2017 06:00:00 1,6 0,0 17 9 34 18 WNW 50 0,0
18.10.2017 05:00:00 1,1 -0,1 16 9 27 14 WNW 50 0,0
18.10.2017 04:00:00 0,9 -0,4 14 8 23 12 WNW 50 0,0
18.10.2017 03:00:00 -0,6 -1,3 8 4 18 10 W 50 0,0
18.10.2017 02:00:00 0,2 -0,8 7 4 19 10 SSW 50 0,0
18.10.2017 01:00:00 0,1 -0,6 4 2 13 7 WNW 50 0,0
18.10.2017 00:00:00 1,2 0,2 6 4 23 12 WSW 50 0,0
17.10.2017 23:00:00 1,4 0,5 8 4 16 8 WNW 50 0,0
17.10.2017 22:00:00 1,4 0,7 9 5 24 13 W 50 0,0
17.10.2017 21:00:00 1,6 1,0 16 8 24 13 WNW 50 0,1
17.10.2017 20:00:00 1,8 1,5 10 5 16 9 W 12 0,3
17.10.2017 19:00:00 1,8 1,7 5 3 8 4 W 9 0,5
17.10.2017 18:00:00 2,1 2,0 0 0 3 2 N 15 0,7
17.10.2017 17:00:00 2,4 2,3 0 0 4 2 N 7 1,1
17.10.2017 16:00:00 2,3 2,2 0 0 6 3 N 7 0,6
17.10.2017 15:00:00 2,3 2,2 3 1 8 4 ESE 18 0,5
17.10.2017 14:00:00 2,1 2,0 3 2 7 4 ESE 4,9 1,1
17.10.2017 13:00:00 2,1 2,0 5 3 11 6 ESE 3,5 0,7
17.10.2017 12:00:00 2,4 2,3 4 2 8 4 ESE 6 0,7
17.10.2017 11:00:00 1,6 1,5 0 0 9 5 N 49 0,0
17.10.2017 10:00:00 1,2 1,2 0 0 8 4 N 31 0,3
17.10.2017 09:00:00 0,6 0,5 3 2 9 5 SSE 1,8 1,2
17.10.2017 08:00:00 0,8 0,7 6 3 10 5 SSE 17 0,2
17.10.2017 07:00:00 0,9 0,6 0 0 7 4 N 6 0,7
17.10.2017 06:00:00 0,8 0,2 3 2 10 5 NW 18 0,1
17.10.2017 05:00:00 0,5 -0,5 3 2 9 5 E 30 0,1
17.10.2017 04:00:00 0,8 -0,7 5 3 14 8 N 50 0,0
17.10.2017 03:00:00 -0,2 -1,0 3 1 8 4 W 50 0,0
17.10.2017 02:00:00 -0,6 -1,9 2 1 11 6 NE 50 0,0
17.10.2017 01:00:00 0,0 -1,9 4 2 10 6 S 50 0,0
17.10.2017 00:00:00 0,4 -1,0 7 4 17 9 W 50 0,0
16.10.2017 23:00:00 1,3 -0,5 12 6 15 8 W 50 0,0
16.10.2017 22:00:00 -0,5 -1,8 7 4 14 8 W 50 0,0
16.10.2017 21:00:00 0,3 -1,0 8 4 14 8 W 50 0,0
16.10.2017 20:00:00 -1,2 -1,9 7 4 11 6 W 50 0,0
16.10.2017 19:00:00 -0,2 -1,2 6 4 11 6 W 50 0,0
16.10.2017 18:00:00 1,5 -0,4 6 4 18 10 W 50 0,0
16.10.2017 17:00:00 6,1 0,2 13 7 28 15 W 50 0,0
16.10.2017 16:00:00 7,1 0,5 18 10 40 22 W 50 0,0
16.10.2017 15:00:00 6,7 0,4 22 12 41 22 W 47 0,0
16.10.2017 14:00:00 6,7 0,2 27 15 47 25 W 50 0,0
16.10.2017 13:00:00 8,2 1,4 22 12 40 22 WNW 50 0,0
16.10.2017 12:00:00 7,0 1,3 24 13 47 25 WNW 50 0,0
16.10.2017 11:00:00 6,7 1,4 27 15 46 25 WNW 50 0,0
16.10.2017 10:00:00 6,7 1,8 26 14 50 27 WNW 50 0,0
16.10.2017 09:00:00 6,9 1,8 29 16 46 25 WNW 50 0,0
16.10.2017 08:00:00 8,0 2,2 28 15 61 33 WNW 50 0,0
16.10.2017 07:00:00 10,3 4,4 24 13 45 24 WNW 50 0,0
16.10.2017 06:00:00 9,5 6,2 14 8 39 21 WNW 50 0,0
16.10.2017 05:00:00 10,4 6,9 23 12 53 29 W 50 0,0
16.10.2017 04:00:00 10,8 7,7 13 7 44 24 WNW 50 0,0
16.10.2017 03:00:00 10,4 7,8 24 13 46 25 WSW 47 0,0
16.10.2017 02:00:00 9,8 7,9 17 9 45 24 WSW 38 0,0

tt = Température de l'air
td = dewpoint
ff = Vitesse du vent
fx = gusts
dd = Direction du vent
vv = visibility
rr = Quantités de précipitations

stations d'obs. à proximité